createdAt,value
2018-11-12T00:02:24.519Z,98596.91
2018-11-12T00:04:53.001Z,98594.39
2018-11-12T00:07:21.480Z,98597.97
2018-11-12T00:09:49.984Z,98598.09
2018-11-12T00:12:18.486Z,98600.39
2018-11-12T00:14:46.968Z,98601.13
2018-11-12T00:17:15.541Z,98615.43
2018-11-12T00:19:44.004Z,98614.34
2018-11-12T00:22:12.512Z,98617.23
2018-11-12T00:24:40.983Z,98617.05
2018-11-12T00:27:09.444Z,98623.13
2018-11-12T00:29:38.031Z,98619.03
2018-11-12T00:32:06.848Z,98623.70
2018-11-12T00:34:35.348Z,98614.97
2018-11-12T00:37:03.812Z,98612.31
2018-11-12T00:39:32.311Z,98614.59
2018-11-12T00:42:00.780Z,98607.84
2018-11-12T00:44:29.548Z,98605.70
2018-11-12T00:46:58.396Z,98592.00
2018-11-12T00:49:26.872Z,98595.70
2018-11-12T00:51:55.351Z,98594.89
2018-11-12T00:54:23.820Z,98603.30
2018-11-12T00:56:52.268Z,98602.44
2018-11-12T00:59:20.751Z,98610.86
2018-11-12T01:01:49.225Z,98608.00
2018-11-12T01:04:17.837Z,98620.09
2018-11-12T01:06:46.228Z,98615.29
2018-11-12T01:09:15.276Z,98607.25
2018-11-12T01:11:43.700Z,98615.20
2018-11-12T01:14:12.240Z,98618.18
2018-11-12T01:16:40.788Z,98616.75
2018-11-12T01:19:09.276Z,98616.84
2018-11-12T01:21:37.768Z,98619.25
2018-11-12T01:24:06.628Z,98613.63
2018-11-12T01:26:35.088Z,98619.40
2018-11-12T01:29:03.581Z,98618.08
2018-11-12T01:31:32.075Z,98618.41
2018-11-12T01:34:00.556Z,98618.30
2018-11-12T01:36:29.052Z,98611.47
2018-11-12T01:38:57.519Z,98610.99
2018-11-12T01:41:26.009Z,98613.63
2018-11-12T01:43:54.469Z,98613.27
2018-11-12T01:46:22.963Z,98603.16
2018-11-12T01:48:51.415Z,98597.77
2018-11-12T01:51:19.915Z,98596.69
2018-11-12T01:53:48.423Z,98594.89
2018-11-12T01:56:16.952Z,98590.53
2018-11-12T01:58:45.524Z,98594.38
2018-11-12T02:01:14.295Z,98593.63
2018-11-12T02:03:42.757Z,98598.48
2018-11-12T02:06:11.243Z,98598.58
2018-11-12T02:08:39.755Z,98598.34
2018-11-12T02:11:08.200Z,98599.77
2018-11-12T02:13:36.956Z,98600.75
2018-11-12T02:16:08.305Z,98600.75
2018-11-12T02:18:36.795Z,98598.72
2018-11-12T02:21:05.965Z,98597.41
2018-11-12T02:23:34.491Z,98596.36
2018-11-12T02:26:02.984Z,98605.41
2018-11-12T02:28:31.483Z,98608.62
2018-11-12T02:30:59.968Z,98604.33
2018-11-12T02:33:28.455Z,98604.45
2018-11-12T02:35:56.948Z,98599.74
2018-11-12T02:38:25.971Z,98602.21
2018-11-12T02:40:54.442Z,98607.72
2018-11-12T02:43:23.024Z,98613.73
2018-11-12T02:45:51.514Z,98615.06
2018-11-12T02:48:19.999Z,98607.86
2018-11-12T02:50:48.499Z,98614.53
2018-11-12T02:53:17.075Z,98616.71
2018-11-12T02:55:45.562Z,98613.91
2018-11-12T02:58:14.026Z,98619.64
2018-11-12T03:00:42.541Z,98622.51
2018-11-12T03:03:11.039Z,98622.13
2018-11-12T03:05:39.541Z,98625.21
2018-11-12T03:08:07.980Z,98613.48
2018-11-12T03:10:36.493Z,98611.93
2018-11-12T03:13:05.386Z,98607.39
2018-11-12T03:15:33.883Z,98606.41
2018-11-12T03:18:02.337Z,98598.55
2018-11-12T03:20:30.943Z,98598.11
2018-11-12T03:22:59.461Z,98593.30
2018-11-12T03:25:27.985Z,98593.66
2018-11-12T03:27:56.540Z,98597.95
2018-11-12T03:30:25.025Z,98599.66
2018-11-12T03:32:54.075Z,98609.16
2018-11-12T03:35:22.595Z,98618.79
2018-11-12T03:37:51.659Z,98634.05
2018-11-12T03:40:22.622Z,98638.14
2018-11-12T03:42:51.592Z,98639.94
2018-11-12T03:45:24.802Z,98648.59
2018-11-12T03:47:53.475Z,98649.91
2018-11-12T03:50:23.460Z,98641.41
2018-11-12T03:52:52.060Z,98636.20
2018-11-12T03:55:21.791Z,98642.25
2018-11-12T03:57:50.262Z,98643.44
2018-11-12T04:00:21.229Z,98640.09
2018-11-12T04:02:49.683Z,98646.75
2018-11-12T04:05:18.152Z,98633.95
2018-11-12T04:07:46.675Z,98636.11
2018-11-12T04:10:17.943Z,98628.31
2018-11-12T04:12:46.462Z,98628.28
2018-11-12T04:15:16.553Z,98623.59
2018-11-12T04:17:45.040Z,98629.83
2018-11-12T04:20:14.920Z,98625.01
2018-11-12T04:22:50.797Z,98618.75
2018-11-12T04:25:19.729Z,98620.78
2018-11-12T04:27:48.211Z,98622.89
2018-11-12T04:30:16.837Z,98615.98
2018-11-12T04:32:46.647Z,98617.27
2018-11-12T04:35:15.123Z,98604.41
2018-11-12T04:37:43.659Z,98600.58
2018-11-12T04:40:14.751Z,98606.49
2018-11-12T04:42:43.576Z,98605.35
2018-11-12T04:45:13.810Z,98609.15
2018-11-12T04:47:43.280Z,98611.86
2018-11-12T04:50:14.207Z,98614.27
2018-11-12T04:52:43.019Z,98618.77
2018-11-12T04:55:15.995Z,98617.41
2018-11-12T04:57:44.964Z,98616.13
2018-11-12T05:00:18.008Z,98615.28
2018-11-12T05:02:46.476Z,98609.19
2018-11-12T05:05:16.283Z,98616.63
2018-11-12T05:07:45.318Z,98613.94
2018-11-12T05:10:16.352Z,98624.23
2018-11-12T05:13:47.757Z,98626.14
2018-11-12T05:16:16.255Z,98630.92
2018-11-12T05:18:44.724Z,98633.70
2018-11-12T05:21:13.201Z,98634.64
2018-11-12T05:23:41.653Z,98637.66
2018-11-12T05:26:10.098Z,98643.67
2018-11-12T05:28:38.634Z,98647.09
2018-11-12T05:31:07.119Z,98648.64
2018-11-12T05:33:35.662Z,98654.13
2018-11-12T05:36:04.164Z,98657.50
2018-11-12T05:38:32.663Z,98656.86
2018-11-12T05:41:01.162Z,98663.91
2018-11-12T05:43:29.604Z,98670.73
2018-11-12T05:45:58.104Z,98672.02
2018-11-12T05:48:26.828Z,98666.30
2018-11-12T05:50:55.297Z,98653.56
2018-11-12T05:53:23.767Z,98658.58
2018-11-12T05:55:52.301Z,98654.09
2018-11-12T05:58:20.784Z,98655.25
2018-11-12T06:00:49.319Z,98657.72
2018-11-12T06:03:17.788Z,98657.03
2018-11-12T06:05:46.284Z,98651.23
2018-11-12T06:08:14.739Z,98658.34
2018-11-12T06:10:43.284Z,98660.92
2018-11-12T06:13:11.762Z,98668.23
2018-11-12T06:15:40.236Z,98658.27
2018-11-12T06:18:08.745Z,98662.11
2018-11-12T06:20:37.243Z,98671.28
2018-11-12T06:23:06.071Z,98681.08
2018-11-12T06:25:35.698Z,98680.54
2018-11-12T06:28:04.408Z,98687.00
2018-11-12T06:30:34.307Z,98699.38
2018-11-12T06:33:02.885Z,98707.61
2018-11-12T06:35:31.426Z,98712.42
2018-11-12T06:38:00.140Z,98714.86
2018-11-12T06:40:29.198Z,98707.23
2018-11-12T06:42:57.735Z,98717.69
2018-11-12T06:45:28.598Z,98724.81
2018-11-12T06:47:58.121Z,98723.00
2018-11-12T06:50:27.912Z,98728.31
2018-11-12T06:52:56.838Z,98731.27
2018-11-12T06:55:25.330Z,98725.42
2018-11-12T06:57:54.952Z,98731.29
2018-11-12T07:00:30.552Z,98737.59
2018-11-12T07:02:59.039Z,98732.00
2018-11-12T07:05:27.974Z,98732.31
2018-11-12T07:07:56.445Z,98732.23
2018-11-12T07:10:26.239Z,98729.63
2018-11-12T07:12:55.409Z,98721.25
2018-11-12T07:15:25.452Z,98725.86
2018-11-12T07:17:53.980Z,98727.79
2018-11-12T07:20:24.000Z,98725.62
2018-11-12T07:22:52.933Z,98726.41
2018-11-12T07:25:23.430Z,98719.39
2018-11-12T07:27:51.867Z,98726.27
2018-11-12T07:30:23.206Z,98728.74
2018-11-12T07:32:52.724Z,98729.05
2018-11-12T07:35:21.717Z,98731.09
2018-11-12T07:37:51.565Z,98723.89
2018-11-12T07:40:20.567Z,98731.47
2018-11-12T07:42:49.108Z,98722.64
2018-11-12T07:45:18.930Z,98716.38
2018-11-12T07:47:48.436Z,98713.83
2018-11-12T07:50:20.297Z,98718.19
2018-11-12T07:52:48.792Z,98725.30
2018-11-12T07:55:19.292Z,98724.69
2018-11-12T07:57:49.300Z,98728.46
2018-11-12T08:00:22.104Z,98719.19
2018-11-12T08:02:51.841Z,98725.45
2018-11-12T08:05:20.340Z,98728.70
2018-11-12T08:07:49.056Z,98726.48
2018-11-12T08:10:18.735Z,98729.54
2018-11-12T08:12:47.955Z,98724.81
2018-11-12T08:15:18.016Z,98730.56
2018-11-12T08:17:46.716Z,98732.32
2018-11-12T08:20:18.632Z,98734.19
2018-11-12T08:22:48.485Z,98731.44
2018-11-12T08:25:16.970Z,98733.34
2018-11-12T08:27:45.907Z,98738.19
2018-11-12T08:30:23.545Z,98744.37
2018-11-12T08:32:53.814Z,98736.70
2018-11-12T08:35:22.320Z,98735.65
2018-11-12T08:37:51.536Z,98734.83
2018-11-12T08:40:22.229Z,98731.33
2018-11-12T08:42:50.714Z,98732.70
2018-11-12T08:45:19.204Z,98736.97
2018-11-12T08:47:49.342Z,98737.25
2018-11-12T08:50:19.254Z,98741.70
2018-11-12T08:52:48.878Z,98746.20
2018-11-12T08:55:19.713Z,98746.67
2018-11-12T08:57:49.667Z,98755.90
2018-11-12T09:00:19.236Z,98756.22
2018-11-12T09:02:48.099Z,98752.50
2018-11-12T09:05:17.634Z,98750.29
2018-11-12T09:07:47.679Z,98753.13
2018-11-12T09:13:48.889Z,98756.26
2018-11-12T09:16:17.480Z,98755.86
2018-11-12T09:18:46.088Z,98754.75
2018-11-12T09:21:14.795Z,98752.75
2018-11-12T09:23:43.296Z,98753.20
2018-11-12T09:26:11.783Z,98756.38
2018-11-12T09:28:40.295Z,98760.39
2018-11-12T09:31:09.887Z,98749.30
2018-11-12T09:33:37.371Z,98748.27
2018-11-12T09:36:05.962Z,98747.76
2018-11-12T09:38:34.505Z,98750.52
2018-11-12T09:41:02.972Z,98760.58
2018-11-12T09:43:31.436Z,98765.79
2018-11-12T09:46:00.010Z,98766.06
2018-11-12T09:48:28.428Z,98764.98
2018-11-12T09:50:56.964Z,98757.74
2018-11-12T09:53:25.706Z,98752.05
2018-11-12T09:55:54.183Z,98751.97
2018-11-12T09:58:22.673Z,98742.48
2018-11-12T10:00:51.446Z,98744.63
2018-11-12T10:03:27.761Z,98752.39
2018-11-12T10:05:58.483Z,98756.09
2018-11-12T10:08:29.190Z,98755.39
2018-11-12T10:10:59.196Z,98757.52
2018-11-12T10:13:28.178Z,98756.95
2018-11-12T10:15:58.023Z,98753.47
2018-11-12T10:18:24.120Z,98748.63
2018-11-12T10:20:52.582Z,98754.87
2018-11-12T10:23:21.835Z,98751.95
2018-11-12T10:25:50.539Z,98746.38
2018-11-12T10:28:20.439Z,98750.84
2018-11-12T10:30:49.361Z,98745.65
2018-11-12T10:33:18.767Z,98743.34
2018-11-12T10:35:47.535Z,98731.16
2018-11-12T10:38:16.969Z,98731.13
2018-11-12T10:40:45.590Z,98724.64
2018-11-12T10:43:14.035Z,98716.16
2018-11-12T10:45:42.528Z,98703.38
2018-11-12T10:48:11.311Z,98704.66
2018-11-12T10:50:40.147Z,98704.03
2018-11-12T10:53:08.667Z,98702.00
2018-11-12T10:55:37.290Z,98696.09
2018-11-12T10:58:06.249Z,98688.31
2018-11-12T11:00:40.377Z,98683.28
2018-11-12T11:03:50.293Z,98684.30
2018-11-12T11:06:18.807Z,98686.78
2018-11-12T11:08:47.275Z,98688.34
2018-11-12T11:11:15.795Z,98688.63
2018-11-12T11:13:44.331Z,98685.53
2018-11-12T11:16:12.816Z,98690.90
2018-11-12T11:18:41.321Z,98699.58
2018-11-12T11:21:09.807Z,98691.08
2018-11-12T11:23:38.245Z,98671.70
2018-11-12T11:26:06.776Z,98677.95
2018-11-12T11:28:35.235Z,98686.20
2018-11-12T11:31:03.818Z,98691.38
2018-11-12T11:33:32.528Z,98680.84
2018-11-12T11:36:00.997Z,98670.61
2018-11-12T11:38:29.735Z,98681.17
2018-11-12T11:40:58.451Z,98679.86
2018-11-12T11:43:26.952Z,98685.28
2018-11-12T11:45:55.951Z,98687.86
2018-11-12T11:48:24.784Z,98690.83
2018-11-12T11:50:53.353Z,98679.36
2018-11-12T11:53:21.745Z,98678.73
2018-11-12T11:55:50.541Z,98677.39
2018-11-12T11:58:19.047Z,98671.19
2018-11-12T12:00:47.902Z,98669.14
2018-11-12T12:03:16.389Z,98665.45
2018-11-12T12:05:45.188Z,98682.00
2018-11-12T12:08:13.693Z,98689.36
2018-11-12T12:11:45.452Z,98687.04
2018-11-12T12:14:13.897Z,98678.75
2018-11-12T12:16:42.439Z,98609.14
2018-11-12T12:19:10.958Z,98677.59
2018-11-12T12:21:40.471Z,98674.87
2018-11-12T12:24:08.951Z,98674.66
2018-11-12T12:26:37.642Z,98670.27
2018-11-12T12:29:06.539Z,98665.49
2018-11-12T12:31:35.363Z,98657.38
2018-11-12T12:34:04.094Z,98663.98
2018-11-12T12:36:32.771Z,98668.41
2018-11-12T12:39:01.295Z,98668.09
2018-11-12T12:41:29.751Z,98666.41
2018-11-12T12:43:58.204Z,98671.08
2018-11-12T12:46:26.716Z,98669.27
2018-11-12T12:48:55.230Z,98673.75
2018-11-12T12:51:23.725Z,98673.55
2018-11-12T12:53:52.477Z,98673.32
2018-11-12T12:56:20.934Z,98684.94
2018-11-12T12:58:49.842Z,98687.35
2018-11-12T13:01:18.308Z,98689.20
2018-11-12T13:03:46.891Z,98686.73
2018-11-12T13:06:15.416Z,98683.36
2018-11-12T13:08:44.104Z,98676.61
2018-11-12T13:11:12.644Z,98668.95
2018-11-12T13:13:41.144Z,98665.47
2018-11-12T13:16:10.063Z,98663.42
2018-11-12T13:18:38.535Z,98663.27
2018-11-12T13:21:07.150Z,98669.99
2018-11-12T13:23:36.428Z,98673.38
2018-11-12T13:26:04.955Z,98670.76
2018-11-12T13:28:33.471Z,98660.05
2018-11-12T13:31:01.964Z,98662.70
2018-11-12T13:33:30.533Z,98675.59
2018-11-12T13:35:59.101Z,98681.54
2018-11-12T13:38:27.635Z,98679.25
2018-11-12T13:40:56.115Z,98677.11
2018-11-12T13:43:24.583Z,98671.73
2018-11-12T13:45:53.070Z,98667.25
2018-11-12T13:48:21.607Z,98664.53
2018-11-12T13:50:50.062Z,98666.28
2018-11-12T13:53:18.565Z,98682.55
2018-11-12T13:55:47.045Z,98691.39
2018-11-12T13:58:15.511Z,98693.30
2018-11-12T14:00:44.009Z,98697.57
2018-11-12T14:03:12.484Z,98702.05
2018-11-12T14:05:41.228Z,98695.43
2018-11-12T14:08:09.903Z,98704.44
2018-11-12T14:10:38.383Z,98704.26
2018-11-12T14:13:06.863Z,98708.89
2018-11-12T14:15:41.953Z,98700.31
2018-11-12T14:18:10.491Z,98699.84
2018-11-12T14:20:39.153Z,98704.22
2018-11-12T14:23:07.469Z,98706.06
2018-11-12T14:25:35.975Z,98712.50
2018-11-12T14:28:04.509Z,98709.61
2018-11-12T14:30:33.013Z,98710.59
2018-11-12T14:33:01.520Z,98703.81
2018-11-12T14:35:30.445Z,98709.85
2018-11-12T14:37:59.203Z,98717.92
2018-11-12T14:40:27.692Z,98721.18
2018-11-12T14:42:56.240Z,98719.58
2018-11-12T14:45:24.841Z,98718.36
2018-11-12T14:47:53.271Z,98718.28
2018-11-12T14:50:22.113Z,98721.17
2018-11-12T14:52:50.619Z,98708.39
2018-11-12T14:55:19.452Z,98716.80
2018-11-12T14:57:47.944Z,98723.81
2018-11-12T15:00:19.079Z,98733.91
2018-11-12T15:02:48.836Z,98728.50
2018-11-12T15:05:18.560Z,98741.98
2018-11-12T15:07:47.955Z,98752.94
2018-11-12T15:10:16.483Z,98754.91
2018-11-12T15:12:45.863Z,98746.86
2018-11-12T15:15:14.906Z,98751.62
2018-11-12T15:17:43.751Z,98757.31
2018-11-12T15:20:15.145Z,98759.56
2018-11-12T15:22:44.112Z,98760.98
2018-11-12T15:25:14.999Z,98765.58
2018-11-12T15:27:43.950Z,98768.31
2018-11-12T15:30:14.997Z,98767.63
2018-11-12T15:32:44.312Z,98768.11
2018-11-12T15:35:13.561Z,98753.88
2018-11-12T15:37:42.899Z,98756.41
2018-11-12T15:40:12.379Z,98752.94
2018-11-12T15:42:44.069Z,98751.71
2018-11-12T15:45:18.174Z,98753.45
2018-11-12T15:47:48.591Z,98758.58
2018-11-12T15:50:29.506Z,98765.66
2018-11-12T15:53:01.124Z,98770.41
2018-11-12T15:55:31.936Z,98777.03
2018-11-12T15:58:03.591Z,98778.30
2018-11-12T16:00:33.837Z,98764.22
2018-11-12T16:03:05.254Z,98764.52
2018-11-12T16:05:35.776Z,98773.27
2018-11-12T16:08:04.513Z,98777.38
2018-11-12T16:10:33.038Z,98774.37
2018-11-12T16:13:01.755Z,98777.37
2018-11-12T16:15:30.447Z,98771.39
2018-11-12T16:17:59.224Z,98763.95
2018-11-12T16:20:29.347Z,98763.66
2018-11-12T16:22:58.937Z,98768.94
2018-11-12T16:25:28.305Z,98758.45
2018-11-12T16:27:57.219Z,98746.64
2018-11-12T16:30:25.726Z,98751.66
2018-11-12T16:32:54.397Z,98754.52
2018-11-12T16:35:24.190Z,98748.95
2018-11-12T16:37:54.044Z,98748.58
2018-11-12T16:40:22.571Z,98748.38
2018-11-12T16:42:51.512Z,98755.70
2018-11-12T16:45:19.979Z,98770.86
2018-11-12T16:47:48.760Z,98780.34
2018-11-12T16:50:17.786Z,98788.66
2018-11-12T16:52:46.580Z,98795.34
2018-11-12T16:55:17.451Z,98800.94
2018-11-12T16:57:46.104Z,98793.08
2018-11-12T17:01:17.573Z,98800.28
2018-11-12T17:03:46.222Z,98792.91
2018-11-12T17:06:14.707Z,98785.81
2018-11-12T17:08:43.193Z,98785.21
2018-11-12T17:11:11.723Z,98778.44
2018-11-12T17:13:40.232Z,98773.26
2018-11-12T17:16:08.699Z,98780.25
2018-11-12T17:18:37.205Z,98784.67
2018-11-12T17:21:05.997Z,98788.19
2018-11-12T17:23:34.548Z,98790.29
2018-11-12T17:26:03.370Z,98791.28
2018-11-12T17:28:31.935Z,98803.35
2018-11-12T17:31:00.566Z,98806.54
2018-11-12T17:33:29.035Z,98803.07
2018-11-12T17:35:57.521Z,98802.08
2018-11-12T17:38:26.030Z,98801.36
2018-11-12T17:40:54.754Z,98796.97
2018-11-12T17:43:23.555Z,98801.78
2018-11-12T17:45:51.996Z,98805.11
2018-11-12T17:48:20.540Z,98811.89
2018-11-12T17:50:49.008Z,98817.80
2018-11-12T17:53:17.723Z,98818.97
2018-11-12T17:55:46.396Z,98820.31
2018-11-12T17:58:14.928Z,98830.69
2018-11-12T18:00:43.646Z,98836.31
2018-11-12T18:03:12.139Z,98832.52
2018-11-12T18:05:40.612Z,98833.86
2018-11-12T18:08:09.263Z,98832.72
2018-11-12T18:10:37.556Z,98840.63
2018-11-12T18:13:06.936Z,98841.98
2018-11-12T18:15:35.452Z,98838.73
2018-11-12T18:18:03.921Z,98849.36
2018-11-12T18:20:32.676Z,98855.28
2018-11-12T18:23:01.232Z,98847.42
2018-11-12T18:25:29.880Z,98851.19
2018-11-12T18:27:58.388Z,98851.38
2018-11-12T18:30:28.601Z,98858.61
2018-11-12T18:32:58.243Z,98862.20
2018-11-12T18:35:26.981Z,98857.87
2018-11-12T18:37:55.740Z,98862.52
2018-11-12T18:40:25.632Z,98860.06
2018-11-12T18:42:54.172Z,98859.14
2018-11-12T18:45:23.892Z,98864.81
2018-11-12T18:47:53.012Z,98864.50
2018-11-12T18:50:23.463Z,98870.73
2018-11-12T18:52:52.234Z,98858.42
2018-11-12T18:55:20.687Z,98878.50
2018-11-12T18:57:49.802Z,98880.30
2018-11-12T19:00:19.637Z,98890.81
2018-11-12T19:02:48.523Z,98890.34
2018-11-12T19:05:18.938Z,98893.61
2018-11-12T19:07:49.214Z,98897.23
2018-11-12T19:10:19.222Z,98904.64
2018-11-12T19:12:48.283Z,98907.23
2018-11-12T19:15:19.323Z,98912.04
2018-11-12T19:17:54.089Z,98906.00
2018-11-12T19:20:22.702Z,98909.89
2018-11-12T19:22:51.254Z,98915.66
2018-11-12T19:25:19.749Z,98912.36
2018-11-12T19:27:48.223Z,98920.70
2018-11-12T19:30:21.383Z,98898.83
2018-11-12T19:32:49.882Z,98925.94
2018-11-12T19:35:20.140Z,98926.99
2018-11-12T19:37:48.642Z,98923.89
2018-11-12T19:40:18.703Z,98927.00
2018-11-12T19:42:48.376Z,98929.55
2018-11-12T19:45:17.040Z,98934.28
2018-11-12T19:47:46.495Z,98939.68
2018-11-12T19:50:17.493Z,98941.41
2018-11-12T19:52:47.103Z,98941.92
2018-11-12T19:55:15.828Z,98941.49
2018-11-12T19:57:45.040Z,98939.95
2018-11-12T20:00:15.011Z,98940.93
2018-11-12T20:02:44.613Z,98945.38
2018-11-12T20:05:13.131Z,98956.30
2018-11-12T20:07:42.298Z,98956.01
2018-11-12T20:10:12.874Z,98959.02
2018-11-12T20:12:41.849Z,98958.52
2018-11-12T20:15:11.763Z,98966.25
2018-11-12T20:17:41.058Z,98956.41
2018-11-12T20:20:14.282Z,98959.81
2018-11-12T20:22:43.309Z,98956.63
2018-11-12T20:25:13.327Z,98959.34
2018-11-12T20:27:42.264Z,98968.38
2018-11-12T20:30:15.883Z,98970.57
2018-11-12T20:32:44.862Z,98971.73
2018-11-12T20:35:13.323Z,98968.81
2018-11-12T20:37:41.894Z,98974.27
2018-11-12T20:40:11.455Z,98968.21
2018-11-12T20:42:40.466Z,98965.95
2018-11-12T20:45:10.416Z,98967.91
2018-11-12T20:47:39.647Z,98963.52
2018-11-12T20:50:09.412Z,98963.47
2018-11-12T20:52:38.372Z,98971.21
2018-11-12T20:55:08.620Z,98963.43
2018-11-12T20:57:37.771Z,98957.86
2018-11-12T21:00:10.414Z,98961.81
2018-11-12T21:02:39.744Z,98955.42
2018-11-12T21:05:09.191Z,98958.75
2018-11-12T21:07:38.181Z,98951.97
2018-11-12T21:10:07.869Z,98961.79
2018-11-12T21:12:36.488Z,98962.14
2018-11-12T21:15:05.581Z,98966.61
2018-11-12T21:17:34.278Z,98968.34
2018-11-12T21:20:02.793Z,98971.70
2018-11-12T21:22:31.296Z,98974.50
2018-11-12T21:25:00.546Z,98977.86
2018-11-12T21:27:29.197Z,98969.31
2018-11-12T21:29:58.051Z,98969.72
2018-11-12T21:32:26.928Z,98974.51
2018-11-12T21:34:55.440Z,98967.78
2018-11-12T21:37:23.956Z,98964.39
2018-11-12T21:39:52.442Z,98965.13
2018-11-12T21:42:21.310Z,98967.88
2018-11-12T21:44:49.772Z,98970.21
2018-11-12T21:47:18.311Z,98977.34
2018-11-12T21:49:46.820Z,98984.73
2018-11-12T21:52:15.277Z,98970.17
2018-11-12T21:54:43.891Z,98957.26
2018-11-12T21:57:12.406Z,98954.45
2018-11-12T21:59:40.931Z,98963.31
2018-11-12T22:02:09.748Z,98955.59
2018-11-12T22:04:38.272Z,98948.66
2018-11-12T22:07:07.254Z,98963.69
2018-11-12T22:09:35.764Z,98967.36
2018-11-12T22:12:04.499Z,98973.71
2018-11-12T22:14:33.715Z,98978.28
2018-11-12T22:17:02.522Z,98974.05
2018-11-12T22:19:31.086Z,98986.29
2018-11-12T22:21:59.496Z,98985.45
2018-11-12T22:24:27.976Z,98983.34
2018-11-12T22:26:56.879Z,98990.89
2018-11-12T22:29:25.412Z,98990.71
2018-11-12T22:31:53.993Z,98990.44
2018-11-12T22:34:22.468Z,98986.31
2018-11-12T22:36:50.875Z,98985.45
2018-11-12T22:39:19.396Z,98975.42
2018-11-12T22:41:47.879Z,98977.37
2018-11-12T22:44:16.750Z,98982.74
2018-11-12T22:46:45.227Z,98983.59
2018-11-12T22:49:13.756Z,98978.81
2018-11-12T22:51:42.271Z,98976.47
2018-11-12T22:54:10.826Z,98978.55
2018-11-12T22:56:39.243Z,98992.39
2018-11-12T22:59:07.756Z,98983.52
2018-11-12T23:01:36.211Z,98976.88
2018-11-12T23:04:04.744Z,98976.68
2018-11-12T23:06:33.259Z,98977.78
2018-11-12T23:09:01.854Z,98972.39
2018-11-12T23:11:30.392Z,98966.48
2018-11-12T23:13:58.854Z,98975.33
2018-11-12T23:16:27.648Z,98964.98
2018-11-12T23:18:56.202Z,98961.14
2018-11-12T23:21:24.742Z,98963.70
2018-11-12T23:23:53.557Z,98965.22
2018-11-12T23:26:22.075Z,98961.30
2018-11-12T23:28:50.582Z,98955.62
2018-11-12T23:31:19.113Z,98955.34
2018-11-12T23:33:47.843Z,98947.75
2018-11-12T23:36:16.339Z,98947.10
2018-11-12T23:38:44.903Z,98940.76
2018-11-12T23:41:13.383Z,98949.06
2018-11-12T23:43:41.909Z,98950.60
2018-11-12T23:46:10.347Z,98947.25
2018-11-12T23:48:38.852Z,98947.09
2018-11-12T23:51:08.034Z,98948.70
2018-11-12T23:53:36.502Z,98939.38
2018-11-12T23:56:04.983Z,98944.92
2018-11-12T23:58:33.641Z,98950.69
